Pigeon Cove, Massachusetts
Current Conditions -  °F | °C
As of 10:03 PM on Wednesday 22 Oct 2014 (Local Time) from KBVY Reporting Station
Moderate Rain Moderate Rain  
Wind Chill: 51°   Ceiling: 700
Heat Index: 51°   Visibility: 2mi
Dew Point: 48°   Wind: 25mph
Humidity: 89%   Direction: 30°NNE
Pressure: 29.84"   Gusts: 43mph
Location:  42.6548°N, 70.6236°W
Report Text: KBVY 230203Z AUTO 03022G37KT 2SM RA BR OVC007 11/09 A2984 RMK AO2 PK WND 04037/0157 P0004 T01060089
Loading
Personal Weather Stations






























Interactive Weather Map
Tropical Storm Tracking
New forecast layout! Learn more

10-Day Weather Forecast

Advertisements
Track Severe Weather on mobile